Time;durP1;ratioP1;P1;durP2;ratioP2;P2;SDS_P1;SDS_P2;PMS_P1;PMS_P2;Temp;Humidity;BMP_temperature;BMP_pressure;BME280_temperature;BME280_humidity;BME280_pressure;Samples;Min_cycle;Max_cycle;Signal;HPM_P1;HPM_P2
2023/01/20 00:00:33;;;;;;;;;;;180.00;2252.80;;;;;;5029855;28;19916;-75
2023/01/20 00:02:59;;;;;;;;;;;180.10;2252.80;;;;;;5037472;28;19951;-75
2023/01/20 00:05:24;;;;;;;;;;;180.10;2252.80;;;;;;5055726;28;19917;-76
2023/01/20 00:07:50;;;;;;;;;;;180.10;2252.80;;;;;;5037303;28;19905;-75
2023/01/20 00:10:16;;;;;;;;;;;180.00;2252.80;;;;;;5037476;28;19958;-76
2023/01/20 00:12:41;;;;;;;;;;;180.00;2252.80;;;;;;5037425;28;19951;-76
2023/01/20 00:15:09;;;;;;;;;;;179.80;2252.80;;;;;;5055375;28;19905;-75
2023/01/20 00:17:34;;;;;;;;;;;179.90;2252.80;;;;;;5054770;28;19954;-75
2023/01/20 00:20:00;;;;;;;;;;;179.90;2252.80;;;;;;5055200;28;19995;-76
2023/01/20 00:22:25;;;;;;;;;;;179.90;2252.80;;;;;;5036780;28;19912;-76
2023/01/20 00:24:51;;;;;;;;;;;179.80;2252.80;;;;;;5037103;28;20315;-76
2023/01/20 00:27:17;;;;;;;;;;;179.70;2252.80;;;;;;5055156;28;19909;-76
2023/01/20 00:29:45;;;;;;;;;;;179.70;2252.80;;;;;;5037237;28;20317;-76
2023/01/20 00:32:11;;;;;;;;;;;179.70;2252.80;;;;;;5036693;28;19905;-76
2023/01/20 00:34:36;;;;;;;;;;;179.60;2252.80;;;;;;5037699;28;19905;-76
2023/01/20 00:37:03;;;;;;;;;;;179.60;2252.80;;;;;;5036020;28;19904;-77
2023/01/20 00:39:29;;;;;;;;;;;179.60;2252.80;;;;;;5036824;28;19927;-76
2023/01/20 00:41:54;;;;;;;;;;;179.50;2252.80;;;;;;5037224;28;20402;-75
2023/01/20 00:44:20;;;;;;;;;;;179.50;2252.80;;;;;;5037080;28;19927;-76
2023/01/20 00:46:45;;;;;;;;;;;179.50;2252.80;;;;;;5054895;28;20012;-76
2023/01/20 00:49:11;;;;;;;;;;;179.60;2252.80;;;;;;5035412;28;19905;-76
2023/01/20 00:51:37;;;;;;;;;;;179.60;2252.80;;;;;;5036830;28;19916;-76
2023/01/20 00:54:03;;;;;;;;;;;179.60;2252.80;;;;;;5054443;28;19932;-76
2023/01/20 00:56:28;;;;;;;;;;;179.60;2252.80;;;;;;5036684;28;19904;-76
2023/01/20 00:58:54;;;;;;;;;;;179.50;2252.80;;;;;;5054192;28;20050;-76
2023/01/20 01:01:20;;;;;;;;;;;179.40;2252.80;;;;;;5054437;28;19956;-76
2023/01/20 01:03:46;;;;;;;;;;;179.40;2252.80;;;;;;5036249;28;20007;-76
2023/01/20 01:06:13;;;;;;;;;;;179.40;2252.80;;;;;;5028556;28;20624;-76
2023/01/20 01:08:38;;;;;;;;;;;179.50;2252.80;;;;;;5034249;28;19944;-75
2023/01/20 01:11:04;;;;;;;;;;;179.50;2252.80;;;;;;5054765;28;20001;-76
2023/01/20 01:13:30;;;;;;;;;;;179.50;2252.80;;;;;;5035926;28;20011;-76
2023/01/20 01:15:56;;;;;;;;;;;179.40;2252.80;;;;;;5054533;28;19978;-75
2023/01/20 01:18:21;;;;;;;;;;;179.30;2252.80;;;;;;5054524;28;20355;-76
2023/01/20 01:20:47;;;;;;;;;;;179.20;2252.80;;;;;;5036774;28;19964;-75
2023/01/20 01:23:12;;;;;;;;;;;154.50;2252.80;;;;;;5035677;28;19916;-76
2023/01/20 01:25:38;;;;;;;;;;;154.40;2252.80;;;;;;5036890;28;20457;-75
2023/01/20 01:28:04;;;;;;;;;;;154.40;2252.80;;;;;;5036665;28;19905;-76
2023/01/20 01:30:29;;;;;;;;;;;154.40;2252.80;;;;;;5036739;28;19912;-76
2023/01/20 01:32:55;;;;;;;;;;;154.30;2252.80;;;;;;5036577;28;19999;-76
2023/01/20 01:35:21;;;;;;;;;;;154.30;2252.80;;;;;;5036417;28;19931;-75
2023/01/20 01:37:46;;;;;;;;;;;154.30;2252.80;;;;;;5036477;28;19926;-76
2023/01/20 01:40:12;;;;;;;;;;;154.30;2252.80;;;;;;5036286;28;19905;-76
2023/01/20 01:42:37;;;;;;;;;;;154.10;2252.80;;;;;;5036569;28;19905;-76
2023/01/20 01:45:09;;;;;;;;;;;154.10;2252.80;;;;;;5035908;28;19913;-76
2023/01/20 01:47:35;;;;;;;;;;;154.10;2252.80;;;;;;5027779;28;19909;-76
2023/01/20 01:50:01;;;;;;;;;;;154.10;2252.80;;;;;;5035559;28;20382;-76
2023/01/20 01:52:27;;;;;;;;;;;154.10;2252.80;;;;;;5050324;28;19999;-76
2023/01/20 01:54:52;;;;;;;;;;;154.10;2252.80;;;;;;5053770;28;20038;-76
2023/01/20 01:57:18;;;;;;;;;;;154.20;2252.80;;;;;;5032421;28;19909;-76
2023/01/20 01:59:44;;;;;;;;;;;154.30;2252.80;;;;;;5032534;28;19909;-75
2023/01/20 02:02:09;;;;;;;;;;;154.30;2252.80;;;;;;5032510;28;20371;-76
2023/01/20 02:04:37;;;;;;;;;;;154.20;2252.80;;;;;;5032259;28;20013;-76
2023/01/20 02:07:14;;;;;;;;;;;154.30;2252.80;;;;;;5031850;28;19909;-76
2023/01/20 02:09:40;;;;;;;;;;;154.20;2252.80;;;;;;5031076;28;19959;-77
2023/01/20 02:12:07;;;;;;;;;;;154.10;2252.80;;;;;;5033529;28;19909;-77
2023/01/20 02:14:35;;;;;;;;;;;154.10;2252.80;;;;;;5033675;28;19905;-75
2023/01/20 02:17:07;;;;;;;;;;;154.10;2252.80;;;;;;5033577;28;20367;-76
2023/01/20 02:19:51;;;;;;;;;;;154.10;2252.80;;;;;;5030987;28;20359;-76
2023/01/20 02:22:22;;;;;;;;;;;154.20;2252.80;;;;;;5022262;28;19996;-76
2023/01/20 02:25:06;;;;;;;;;;;154.00;2252.80;;;;;;5033265;28;19917;-76
2023/01/20 02:27:35;;;;;;;;;;;154.10;2252.80;;;;;;5027554;28;20454;-76
2023/01/20 02:30:09;;;;;;;;;;;154.00;2252.80;;;;;;5023853;28;19913;-76
2023/01/20 02:32:47;;;;;;;;;;;154.10;2252.80;;;;;;5028442;28;20018;-76
2023/01/20 02:35:21;;;;;;;;;;;154.10;2252.80;;;;;;5021487;28;19906;-76
2023/01/20 02:37:54;;;;;;;;;;;154.10;2252.80;;;;;;5023556;28;19912;-76
2023/01/20 02:40:20;;;;;;;;;;;154.10;2252.80;;;;;;5020766;28;19905;-75
2023/01/20 02:42:49;;;;;;;;;;;154.10;2252.80;;;;;;5023660;28;20413;-76
2023/01/20 02:45:24;;;;;;;;;;;154.10;2252.80;;;;;;5031569;28;19913;-76
2023/01/20 02:47:54;;;;;;;;;;;153.80;2252.80;;;;;;5033114;28;19909;-75
2023/01/20 02:50:27;;;;;;;;;;;153.70;2252.80;;;;;;5033219;28;19909;-76
2023/01/20 02:52:55;;;;;;;;;;;128.90;2252.80;;;;;;5004985;28;19936;-76
2023/01/20 02:55:40;;;;;;;;;;;153.70;2252.80;;;;;;5023578;28;19916;-75
2023/01/20 02:58:10;;;;;;;;;;;153.70;2252.80;;;;;;5031434;28;19921;-75
2023/01/20 03:00:38;;;;;;;;;;;153.60;2252.80;;;;;;5031175;28;19909;-75
2023/01/20 03:03:13;;;;;;;;;;;153.60;2252.80;;;;;;5035813;28;19912;-76
2023/01/20 03:05:44;;;;;;;;;;;153.60;2252.80;;;;;;5034947;28;19917;-75
2023/01/20 03:08:11;;;;;;;;;;;128.90;2252.80;;;;;;5036978;28;19909;-75
2023/01/20 03:10:37;;;;;;;;;;;128.90;2252.80;;;;;;5035148;28;19905;-75
2023/01/20 03:13:27;;;;;;;;;;;128.80;2252.80;;;;;;5027330;28;19912;-76
2023/01/20 03:15:52;;;;;;;;;;;128.50;2252.80;;;;;;5036712;28;20351;-75
2023/01/20 03:18:18;;;;;;;;;;;128.70;2252.80;;;;;;5036684;28;19955;-76
2023/01/20 03:20:44;;;;;;;;;;;128.40;2252.80;;;;;;5036606;28;20326;-75
2023/01/20 03:23:10;;;;;;;;;;;128.40;2252.80;;;;;;5036275;28;19913;-76
2023/01/20 03:25:37;;;;;;;;;;;128.20;2252.80;;;;;;5036496;28;20383;-76
2023/01/20 03:28:04;;;;;;;;;;;128.30;2252.80;;;;;;5035388;28;19905;-76
2023/01/20 03:30:29;;;;;;;;;;;128.20;2252.80;;;;;;5036561;28;19905;-76
2023/01/20 03:32:55;;;;;;;;;;;103.30;2227.20;;;;;;5033734;28;19916;-76
2023/01/20 03:35:21;;;;;;;;;;;103.30;2227.20;;;;;;5036445;28;19912;-76
2023/01/20 03:37:46;;;;;;;;;;;103.30;2227.20;;;;;;5036459;28;19998;-76
2023/01/20 03:40:13;;;;;;;;;;;103.20;2227.20;;;;;;5036246;28;19912;-76
2023/01/20 03:42:43;;;;;;;;;;;103.00;2227.20;;;;;;5036391;28;19951;-75
2023/01/20 03:45:12;;;;;;;;;;;102.90;2227.20;;;;;;5029315;28;19913;-76
2023/01/20 03:47:38;;;;;;;;;;;102.80;2227.20;;;;;;5031802;28;19905;-75
2023/01/20 03:50:03;;;;;;;;;;;102.90;2227.20;;;;;;5026385;28;20047;-76
2023/01/20 03:52:33;;;;;;;;;;;103.00;2227.20;;;;;;5026828;28;19909;-76
2023/01/20 03:55:04;;;;;;;;;;;102.90;2227.20;;;;;;5032437;28;20366;-76
2023/01/20 03:57:37;;;;;;;;;;;102.90;2227.20;;;;;;5017850;28;19913;-76
2023/01/20 04:00:05;;;;;;;;;;;102.90;2227.20;;;;;;5035782;28;19992;-76
2023/01/20 04:02:31;;;;;;;;;;;103.00;2227.20;;;;;;5035668;28;19905;-76
2023/01/20 04:04:58;;;;;;;;;;;103.00;2227.20;;;;;;5035403;28;20008;-76
2023/01/20 04:07:25;;;;;;;;;;;103.00;2227.20;;;;;;5034764;28;19905;-76
2023/01/20 04:09:53;;;;;;;;;;;103.00;2227.20;;;;;;5017662;28;19905;-76
2023/01/20 04:12:19;;;;;;;;;;;103.00;2227.20;;;;;;5035387;28;19905;-76
2023/01/20 04:14:44;;;;;;;;;;;103.00;2227.20;;;;;;5018010;28;19905;-76
2023/01/20 04:17:10;;;;;;;;;;;102.80;2227.20;;;;;;5017653;28;19955;-76
2023/01/20 04:19:36;;;;;;;;;;;102.80;2227.20;;;;;;5017196;28;19909;-76
2023/01/20 04:22:10;;;;;;;;;;;102.70;2227.20;;;;;;5035299;28;20429;-76
2023/01/20 04:24:39;;;;;;;;;;;102.70;2227.20;;;;;;5017441;28;19984;-76
2023/01/20 04:27:04;;;;;;;;;;;102.70;2227.20;;;;;;5035076;28;19909;-76
2023/01/20 04:29:30;;;;;;;;;;;102.60;2227.20;;;;;;5017012;28;19905;-76
2023/01/20 04:31:59;;;;;;;;;;;102.70;2227.20;;;;;;5035037;28;19909;-76
2023/01/20 04:34:25;;;;;;;;;;;102.80;2227.20;;;;;;5016930;28;19911;-76
2023/01/20 04:36:50;;;;;;;;;;;102.70;2227.20;;;;;;5017001;28;20005;-76
2023/01/20 04:39:16;;;;;;;;;;;102.60;2227.20;;;;;;5034929;28;20359;-76
2023/01/20 04:41:41;;;;;;;;;;;102.70;2227.20;;;;;;5035006;28;20320;-77
2023/01/20 04:44:07;;;;;;;;;;;102.80;2227.20;;;;;;5016534;28;19912;-76
2023/01/20 04:46:32;;;;;;;;;;;102.70;2227.20;;;;;;5017047;28;19963;-76
2023/01/20 04:48:58;;;;;;;;;;;102.70;2227.20;;;;;;5034835;28;19905;-76
2023/01/20 04:51:24;;;;;;;;;;;102.80;2227.20;;;;;;5016996;28;19909;-76
2023/01/20 04:53:49;;;;;;;;;;;102.80;2227.20;;;;;;5034790;28;20295;-76
2023/01/20 04:56:15;;;;;;;;;;;102.70;2227.20;;;;;;5016958;28;19928;-76
2023/01/20 04:58:41;;;;;;;;;;;102.80;2227.20;;;;;;5016902;28;19924;-76
2023/01/20 05:01:07;;;;;;;;;;;102.80;2227.20;;;;;;5034439;28;19921;-76
2023/01/20 05:03:33;;;;;;;;;;;103.00;2227.20;;;;;;5016807;28;20014;-76
2023/01/20 05:05:58;;;;;;;;;;;102.70;2227.20;;;;;;5016555;28;19992;-76
2023/01/20 05:08:24;;;;;;;;;;;102.80;2227.20;;;;;;5016437;28;19962;-76
2023/01/20 05:10:49;;;;;;;;;;;102.70;2227.20;;;;;;5034388;28;19904;-76
2023/01/20 05:13:15;;;;;;;;;;;102.70;2227.20;;;;;;5034401;28;19909;-76
2023/01/20 05:15:41;;;;;;;;;;;102.80;2227.20;;;;;;5016318;28;19955;-76
2023/01/20 05:18:08;;;;;;;;;;;102.80;2227.20;;;;;;5016589;28;19936;-76
2023/01/20 05:20:33;;;;;;;;;;;102.80;2227.20;;;;;;5034248;28;19915;-76
2023/01/20 05:22:59;;;;;;;;;;;102.80;2227.20;;;;;;5015094;28;19909;-76
2023/01/20 05:25:25;;;;;;;;;;;102.90;2227.20;;;;;;5016267;28;19959;-76
2023/01/20 05:27:50;;;;;;;;;;;102.70;2227.20;;;;;;5034147;28;20466;-76
2023/01/20 05:30:16;;;;;;;;;;;102.80;2227.20;;;;;;5016309;28;19909;-76
2023/01/20 05:32:43;;;;;;;;;;;102.70;2227.20;;;;;;5016264;28;19906;-76
2023/01/20 05:35:09;;;;;;;;;;;102.70;2227.20;;;;;;5016180;28;20425;-76
2023/01/20 05:37:34;;;;;;;;;;;102.70;2227.20;;;;;;5033920;28;19909;-76
2023/01/20 05:40:00;;;;;;;;;;;102.80;2227.20;;;;;;5033941;28;19916;-75
2023/01/20 05:42:25;;;;;;;;;;;102.80;2227.20;;;;;;5016066;28;19909;-76
2023/01/20 05:44:51;;;;;;;;;;;102.80;2227.20;;;;;;5016216;28;19919;-76
2023/01/20 05:47:17;;;;;;;;;;;102.70;2227.20;;;;;;5033836;28;20259;-76
2023/01/20 05:49:42;;;;;;;;;;;102.70;2227.20;;;;;;5015564;28;19988;-76
2023/01/20 05:52:08;;;;;;;;;;;102.90;2227.20;;;;;;5016035;28;19998;-76
2023/01/20 05:54:34;;;;;;;;;;;102.70;2227.20;;;;;;5033655;28;19909;-76
2023/01/20 05:56:59;;;;;;;;;;;102.80;2227.20;;;;;;5015704;28;19905;-76
2023/01/20 05:59:25;;;;;;;;;;;102.70;2227.20;;;;;;5032811;28;19963;-76
2023/01/20 06:01:50;;;;;;;;;;;102.70;2227.20;;;;;;5015218;28;20450;-77
2023/01/20 06:04:16;;;;;;;;;;;102.70;2227.20;;;;;;5032454;28;19948;-76
2023/01/20 06:06:42;;;;;;;;;;;102.70;2227.20;;;;;;5032554;28;19909;-76
2023/01/20 06:09:09;;;;;;;;;;;102.70;2227.20;;;;;;5014701;28;20012;-76
2023/01/20 06:11:35;;;;;;;;;;;102.60;2227.20;;;;;;5014948;28;19912;-76
2023/01/20 06:14:00;;;;;;;;;;;102.70;2227.20;;;;;;5014876;28;20286;-76
2023/01/20 06:16:26;;;;;;;;;;;102.60;2227.20;;;;;;5014814;28;19905;-76
2023/01/20 06:18:52;;;;;;;;;;;102.80;2227.20;;;;;;5032368;28;19912;-76
2023/01/20 06:21:17;;;;;;;;;;;102.80;2227.20;;;;;;5032360;28;19905;-76
2023/01/20 06:23:43;;;;;;;;;;;102.60;2227.20;;;;;;5013805;28;19913;-75
2023/01/20 06:26:12;;;;;;;;;;;102.50;2227.20;;;;;;5029335;28;19959;-76
2023/01/20 06:28:38;;;;;;;;;;;102.70;2227.20;;;;;;5030682;28;20372;-75
2023/01/20 06:31:05;;;;;;;;;;;102.70;2227.20;;;;;;5032440;28;19947;-79
2023/01/20 06:33:31;;;;;;;;;;;102.60;2227.20;;;;;;5034154;28;20069;-76
2023/01/20 06:35:57;;;;;;;;;;;102.50;2227.20;;;;;;5028517;28;19908;-75
2023/01/20 06:38:23;;;;;;;;;;;102.60;2227.20;;;;;;5030869;28;19906;-76
2023/01/20 06:40:49;;;;;;;;;;;102.50;2227.20;;;;;;5041901;28;19992;-76
2023/01/20 06:43:15;;;;;;;;;;;102.50;2227.20;;;;;;5032069;28;19955;-79
2023/01/20 06:45:40;;;;;;;;;;;102.60;2227.20;;;;;;5041886;28;20419;-77
2023/01/20 06:48:06;;;;;;;;;;;102.50;2227.20;;;;;;5023274;28;19915;-81
2023/01/20 06:50:31;;;;;;;;;;;102.50;2227.20;;;;;;5043813;28;20398;-78
2023/01/20 06:52:57;;;;;;;;;;;102.80;2227.20;;;;;;5031951;28;19920;-79
2023/01/20 06:55:23;;;;;;;;;;;102.70;2227.20;;;;;;5032506;28;20012;-79
2023/01/20 06:57:48;;;;;;;;;;;102.60;2227.20;;;;;;4485803;28;15080214;-78
2023/01/20 07:00:14;;;;;;;;;;;102.80;2227.20;;;;;;4948992;29;19967;-79
2023/01/20 07:02:40;;;;;;;;;;;103.00;2227.20;;;;;;4926285;29;19945;-78
2023/01/20 07:05:07;;;;;;;;;;;103.00;2227.20;;;;;;4928993;29;19919;-79
2023/01/20 07:07:33;;;;;;;;;;;103.10;2227.20;;;;;;4946966;29;19942;-80
2023/01/20 07:09:59;;;;;;;;;;;102.90;2227.20;;;;;;4928469;29;19907;-81
2023/01/20 07:12:25;;;;;;;;;;;103.10;2227.20;;;;;;4944335;28;19979;-83
2023/01/20 07:14:50;;;;;;;;;;;103.30;2227.20;;;;;;4951147;29;19954;-82
2023/01/20 07:17:16;;;;;;;;;;;128.00;2252.80;;;;;;4945836;29;19911;-81
2023/01/20 07:19:41;;;;;;;;;;;128.00;2252.80;;;;;;4950496;28;19911;-77
2023/01/20 07:22:07;;;;;;;;;;;103.20;2227.20;;;;;;4952867;28;19910;-78
2023/01/20 07:24:32;;;;;;;;;;;103.30;2227.20;;;;;;4961128;28;20365;-78
2023/01/20 07:26:58;;;;;;;;;;;128.00;2252.80;;;;;;4944337;29;19973;-80
2023/01/20 07:29:25;;;;;;;;;;;128.10;2252.80;;;;;;4945933;28;19907;-79
2023/01/20 07:31:50;;;;;;;;;;;128.20;2252.80;;;;;;4940406;29;19914;-77
2023/01/20 07:34:16;;;;;;;;;;;128.20;2252.80;;;;;;4924035;29;20296;-78
2023/01/20 07:36:41;;;;;;;;;;;128.10;2252.80;;;;;;4965539;28;19912;-78
2023/01/20 07:39:08;;;;;;;;;;;128.00;2252.80;;;;;;5014705;28;20354;-79
2023/01/20 07:41:34;;;;;;;;;;;128.20;2252.80;;;;;;5018061;28;19915;-78
2023/01/20 07:43:59;;;;;;;;;;;128.10;2252.80;;;;;;5016518;28;19905;-78
2023/01/20 07:46:25;;;;;;;;;;;128.00;2252.80;;;;;;5037922;28;20085;-80
2023/01/20 07:48:50;;;;;;;;;;;103.30;2227.20;;;;;;5042908;28;20714;-78
2023/01/20 07:51:16;;;;;;;;;;;103.00;2227.20;;;;;;5037890;28;19952;-81
2023/01/20 07:53:51;;;;;;;;;;;102.80;2227.20;;;;;;5019003;28;19917;-80
2023/01/20 07:56:18;;;;;;;;;;;102.70;2227.20;;;;;;5022154;28;19916;-79
2023/01/20 07:58:44;;;;;;;;;;;102.90;2227.20;;;;;;5018963;28;19960;-83
2023/01/20 08:01:09;;;;;;;;;;;103.00;2227.20;;;;;;5028895;28;20437;-82
2023/01/20 08:03:35;;;;;;;;;;;103.00;2227.20;;;;;;5019371;28;19905;-81
2023/01/20 08:06:04;;;;;;;;;;;103.10;2227.20;;;;;;5019628;28;19916;-79
2023/01/20 08:08:31;;;;;;;;;;;103.20;2227.20;;;;;;5021687;28;20358;-82
2023/01/20 08:10:57;;;;;;;;;;;128.00;2252.80;;;;;;5020189;28;19905;-87
2023/01/20 08:13:23;;;;;;;;;;;103.10;2227.20;;;;;;5024760;28;20007;-82
2023/01/20 08:15:48;;;;;;;;;;;103.10;2227.20;;;;;;5020275;28;19955;-80
2023/01/20 08:18:14;;;;;;;;;;;103.30;2227.20;;;;;;5027184;28;19904;-79
2023/01/20 08:20:40;;;;;;;;;;;128.10;2252.80;;;;;;5019745;28;19913;-79
2023/01/20 08:23:05;;;;;;;;;;;103.30;2227.20;;;;;;5018570;28;19916;-82
2023/01/20 08:25:31;;;;;;;;;;;128.00;2252.80;;;;;;5014738;28;20371;-80
2023/01/20 08:27:57;;;;;;;;;;;128.00;2252.80;;;;;;5018060;28;19905;-78
2023/01/20 08:30:22;;;;;;;;;;;128.00;2252.80;;;;;;5019230;28;19905;-80
2023/01/20 08:32:48;;;;;;;;;;;103.30;2227.20;;;;;;5018456;28;19905;-81
2023/01/20 08:35:13;;;;;;;;;;;103.30;2227.20;;;;;;5018430;28;19953;-78
2023/01/20 08:37:39;;;;;;;;;;;128.00;2252.80;;;;;;5018992;28;19967;-76
2023/01/20 08:40:07;;;;;;;;;;;103.30;2227.20;;;;;;5020453;28;19911;-84
2023/01/20 08:42:33;;;;;;;;;;;103.30;2227.20;;;;;;5014229;28;19905;-79
2023/01/20 08:44:59;;;;;;;;;;;103.20;2227.20;;;;;;5018821;28;19913;-79
2023/01/20 08:47:24;;;;;;;;;;;103.10;2227.20;;;;;;5017902;28;19932;-79
2023/01/20 08:49:51;;;;;;;;;;;103.10;2227.20;;;;;;5021141;28;20064;-79
2023/01/20 08:52:17;;;;;;;;;;;103.10;2227.20;;;;;;5019254;28;19912;-81
2023/01/20 08:54:42;;;;;;;;;;;103.20;2227.20;;;;;;5024176;28;19905;-77
2023/01/20 08:57:08;;;;;;;;;;;103.10;2227.20;;;;;;5016433;28;19990;-77
2023/01/20 08:59:33;;;;;;;;;;;103.10;2227.20;;;;;;5044115;28;19909;-78
2023/01/20 09:01:59;;;;;;;;;;;103.20;2227.20;;;;;;5021021;28;20359;-76
2023/01/20 09:04:24;;;;;;;;;;;103.10;2227.20;;;;;;5016164;28;19909;-79
2023/01/20 09:06:51;;;;;;;;;;;103.20;2227.20;;;;;;5017248;28;20942;-77
2023/01/20 09:09:18;;;;;;;;;;;103.00;2227.20;;;;;;5016941;28;19905;-75
2023/01/20 09:11:49;;;;;;;;;;;103.20;2227.20;;;;;;5017154;28;19928;-77
2023/01/20 09:14:24;;;;;;;;;;;103.20;2227.20;;;;;;5035828;28;20358;-77
2023/01/20 09:16:50;;;;;;;;;;;103.20;2227.20;;;;;;5011690;28;19905;-78
2023/01/20 09:19:16;;;;;;;;;;;103.20;2227.20;;;;;;5013626;28;19913;-75
2023/01/20 09:21:42;;;;;;;;;;;103.00;2227.20;;;;;;5019275;28;19958;-77
2023/01/20 09:24:08;;;;;;;;;;;103.10;2227.20;;;;;;5020223;28;19904;-76
2023/01/20 09:26:40;;;;;;;;;;;103.20;2227.20;;;;;;5017004;28;19913;-77
2023/01/20 09:29:09;;;;;;;;;;;103.10;2227.20;;;;;;5020514;28;19987;-77
2023/01/20 09:31:36;;;;;;;;;;;103.00;2227.20;;;;;;5006367;28;19909;-78
2023/01/20 09:34:01;;;;;;;;;;;103.00;2227.20;;;;;;5017413;28;19905;-77
2023/01/20 09:36:30;;;;;;;;;;;103.20;2227.20;;;;;;5022981;28;19905;-75
2023/01/20 09:44:38;;;;;;;;;;;103.20;2227.20;;;;;;5035088;28;20430;-78
2023/01/20 09:47:24;;;;;;;;;;;103.20;2227.20;;;;;;5035670;28;19909;-77
2023/01/20 09:55:40;;;;;;;;;;;103.20;2227.20;;;;;;5039472;28;19951;-78
2023/01/20 09:58:10;;;;;;;;;;;103.20;2227.20;;;;;;5012739;28;19988;-77
2023/01/20 10:00:37;;;;;;;;;;;103.20;2227.20;;;;;;5017571;28;19912;-76
2023/01/20 10:03:06;;;;;;;;;;;103.10;2227.20;;;;;;5016184;28;19905;-76
2023/01/20 10:05:36;;;;;;;;;;;103.10;2227.20;;;;;;5016020;28;20008;-77
2023/01/20 10:08:05;;;;;;;;;;;103.00;2227.20;;;;;;5015487;28;19905;-78
2023/01/20 10:10:38;;;;;;;;;;;103.00;2227.20;;;;;;5015326;28;19905;-76
2023/01/20 10:13:10;;;;;;;;;;;102.90;2227.20;;;;;;5033217;28;19905;-78
2023/01/20 10:15:36;;;;;;;;;;;103.00;2227.20;;;;;;5012760;28;19905;-77
2023/01/20 10:18:04;;;;;;;;;;;102.90;2227.20;;;;;;5015604;28;19996;-79
2023/01/20 10:20:49;;;;;;;;;;;103.00;2227.20;;;;;;5013927;28;19945;-76
2023/01/20 10:23:23;;;;;;;;;;;103.00;2227.20;;;;;;5015894;28;19911;-77
2023/01/20 10:25:52;;;;;;;;;;;102.90;2227.20;;;;;;5015920;28;19912;-78
2023/01/20 10:28:21;;;;;;;;;;;103.00;2227.20;;;;;;5032137;28;19905;-79
2023/01/20 10:30:46;;;;;;;;;;;103.00;2227.20;;;;;;5015701;28;19909;-77
2023/01/20 10:33:22;;;;;;;;;;;103.00;2227.20;;;;;;5009000;28;20414;-78
2023/01/20 10:35:50;;;;;;;;;;;103.10;2227.20;;;;;;5032768;28;19968;-78
2023/01/20 10:38:20;;;;;;;;;;;103.10;2227.20;;;;;;5033311;28;19959;-78
2023/01/20 10:40:48;;;;;;;;;;;103.00;2227.20;;;;;;5021957;28;19959;-78
2023/01/20 10:43:14;;;;;;;;;;;103.00;2227.20;;;;;;5025681;28;19905;-78
2023/01/20 10:45:40;;;;;;;;;;;103.00;2227.20;;;;;;5025034;28;20023;-78
2023/01/20 10:48:18;;;;;;;;;;;103.00;2227.20;;;;;;5032971;28;19956;-79
2023/01/20 10:51:00;;;;;;;;;;;103.00;2227.20;;;;;;5002563;28;19913;-78
2023/01/20 10:53:38;;;;;;;;;;;103.00;2227.20;;;;;;5015059;28;19944;-78
2023/01/20 10:56:22;;;;;;;;;;;102.90;2227.20;;;;;;5012270;28;19909;-77
2023/01/20 10:58:48;;;;;;;;;;;103.00;2227.20;;;;;;5002322;28;19917;-79
2023/01/20 11:01:15;;;;;;;;;;;102.90;2227.20;;;;;;5014943;28;19959;-80
2023/01/20 11:03:43;;;;;;;;;;;102.80;2227.20;;;;;;5014578;28;19906;-80
2023/01/20 11:06:16;;;;;;;;;;;102.80;2227.20;;;;;;5032638;28;19920;-79
2023/01/20 11:08:42;;;;;;;;;;;102.80;2227.20;;;;;;5015453;28;19950;-77
2023/01/20 11:11:09;;;;;;;;;;;102.90;2227.20;;;;;;5012462;28;20003;-78
2023/01/20 11:13:35;;;;;;;;;;;102.80;2227.20;;;;;;5022837;28;19992;-77
2023/01/20 11:16:03;;;;;;;;;;;102.90;2227.20;;;;;;5032626;28;19990;-77
2023/01/20 11:18:29;;;;;;;;;;;103.00;2227.20;;;;;;5015058;28;19905;-77
2023/01/20 11:20:58;;;;;;;;;;;103.10;2227.20;;;;;;5015852;28;19913;-78
2023/01/20 11:23:37;;;;;;;;;;;103.10;2227.20;;;;;;5019318;28;20266;-78
2023/01/20 11:26:15;;;;;;;;;;;103.00;2227.20;;;;;;5017523;28;19968;-80
2023/01/20 11:28:46;;;;;;;;;;;103.00;2227.20;;;;;;5014544;28;19994;-83
2023/01/20 11:31:12;;;;;;;;;;;103.10;2227.20;;;;;;5036823;28;19905;-80
2023/01/20 11:33:38;;;;;;;;;;;103.00;2227.20;;;;;;5028591;28;19913;-77
2023/01/20 11:36:16;;;;;;;;;;;103.00;2227.20;;;;;;5016814;28;19913;-80
2023/01/20 11:38:43;;;;;;;;;;;103.00;2227.20;;;;;;5033282;28;20019;-78
2023/01/20 11:41:19;;;;;;;;;;;103.10;2227.20;;;;;;5028773;28;19905;-76
2023/01/20 11:43:45;;;;;;;;;;;103.00;2227.20;;;;;;5025978;28;19944;-75
2023/01/20 11:46:15;;;;;;;;;;;103.10;2227.20;;;;;;5030150;28;20430;-76
2023/01/20 11:48:41;;;;;;;;;;;103.10;2227.20;;;;;;5027300;28;19909;-76
2023/01/20 11:51:17;;;;;;;;;;;103.20;2227.20;;;;;;5035384;28;20019;-75
2023/01/20 11:53:44;;;;;;;;;;;103.10;2227.20;;;;;;5035300;28;19912;-75
2023/01/20 11:56:17;;;;;;;;;;;103.20;2227.20;;;;;;5015398;28;20274;-77
2023/01/20 11:58:49;;;;;;;;;;;103.20;2227.20;;;;;;5018271;28;19925;-76
2023/01/20 12:01:25;;;;;;;;;;;103.20;2227.20;;;;;;5039004;28;20363;-76
2023/01/20 12:03:53;;;;;;;;;;;103.20;2227.20;;;;;;5047688;28;19932;-77
2023/01/20 12:06:22;;;;;;;;;;;103.10;2227.20;;;;;;5019012;28;19952;-78
2023/01/20 12:09:11;;;;;;;;;;;103.10;2227.20;;;;;;5019447;28;19909;-75
2023/01/20 12:11:40;;;;;;;;;;;103.20;2227.20;;;;;;5042291;28;19921;-78
2023/01/20 12:14:28;;;;;;;;;;;103.20;2227.20;;;;;;5040510;28;19909;-77
2023/01/20 12:17:06;;;;;;;;;;;103.10;2227.20;;;;;;5017083;28;20378;-77
2023/01/20 12:19:44;;;;;;;;;;;103.10;2227.20;;;;;;5018579;28;19995;-78
2023/01/20 12:22:16;;;;;;;;;;;103.00;2227.20;;;;;;5019930;28;20279;-78
2023/01/20 12:27:31;;;;;;;;;;;103.10;2227.20;;;;;;5031335;28;19954;-78
2023/01/20 12:30:03;;;;;;;;;;;103.00;2227.20;;;;;;5018407;28;19992;-77
2023/01/20 12:32:30;;;;;;;;;;;103.10;2227.20;;;;;;5017914;28;20353;-79
2023/01/20 12:34:56;;;;;;;;;;;103.00;2227.20;;;;;;5017627;28;19905;-79
2023/01/20 12:37:32;;;;;;;;;;;102.80;2227.20;;;;;;5044971;28;20000;-79
2023/01/20 12:40:07;;;;;;;;;;;103.00;2227.20;;;;;;5021051;28;19912;-79
2023/01/20 12:42:51;;;;;;;;;;;103.00;2227.20;;;;;;5009118;28;19991;-80
2023/01/20 12:45:32;;;;;;;;;;;103.00;2227.20;;;;;;5019495;28;19913;-78
2023/01/20 12:48:16;;;;;;;;;;;102.90;2227.20;;;;;;5018998;28;19909;-79
2023/01/20 12:50:54;;;;;;;;;;;102.90;2227.20;;;;;;5038190;28;19913;-79
2023/01/20 12:53:26;;;;;;;;;;;102.90;2227.20;;;;;;5019488;28;19905;-80
2023/01/20 12:56:07;;;;;;;;;;;102.80;2227.20;;;;;;5028373;28;19909;-82
2023/01/20 12:58:52;;;;;;;;;;;102.80;2227.20;;;;;;5027520;28;19917;-79
2023/01/20 13:01:17;;;;;;;;;;;102.90;2227.20;;;;;;5035560;28;20339;-82
2023/01/20 13:04:04;;;;;;;;;;;102.80;2227.20;;;;;;5035075;28;19991;-83
2023/01/20 13:06:29;;;;;;;;;;;102.80;2227.20;;;;;;5023091;28;20260;-82
2023/01/20 13:09:03;;;;;;;;;;;102.90;2227.20;;;;;;5033680;28;19964;-81
2023/01/20 13:11:46;;;;;;;;;;;103.00;2227.20;;;;;;5028891;28;19916;-79
2023/01/20 13:14:47;;;;;;;;;;;102.90;2227.20;;;;;;5045668;28;19912;-78
2023/01/20 13:17:17;;;;;;;;;;;103.00;2227.20;;;;;;4974130;28;19913;-79
2023/01/20 13:19:48;;;;;;;;;;;103.00;2227.20;;;;;;4957814;28;19914;-79
2023/01/20 13:22:20;;;;;;;;;;;102.90;2227.20;;;;;;4973853;28;19906;-78
2023/01/20 13:24:50;;;;;;;;;;;103.00;2227.20;;;;;;4973753;28;19953;-79
2023/01/20 13:27:19;;;;;;;;;;;102.90;2227.20;;;;;;4949062;28;19933;-77
2023/01/20 13:29:55;;;;;;;;;;;102.90;2227.20;;;;;;4973118;28;19906;-77
2023/01/20 13:32:30;;;;;;;;;;;103.00;2227.20;;;;;;4957057;28;19906;-82
2023/01/20 13:34:56;;;;;;;;;;;103.00;2227.20;;;;;;4957151;28;19913;-78
2023/01/20 13:37:26;;;;;;;;;;;103.00;2227.20;;;;;;4973321;28;19906;-77
2023/01/20 13:39:53;;;;;;;;;;;103.00;2227.20;;;;;;4957328;28;20333;-89
2023/01/20 13:42:37;;;;;;;;;;;103.00;2227.20;;;;;;4957860;28;19906;-80
2023/01/20 13:45:12;;;;;;;;;;;102.90;2227.20;;;;;;4956646;28;19950;-79
2023/01/20 13:47:51;;;;;;;;;;;103.00;2227.20;;;;;;4965640;28;20360;-78
2023/01/20 13:50:24;;;;;;;;;;;103.00;2227.20;;;;;;4980784;28;19929;-78
2023/01/20 13:52:50;;;;;;;;;;;103.00;2227.20;;;;;;5032390;28;19905;-83
2023/01/20 13:55:26;;;;;;;;;;;103.00;2227.20;;;;;;5036253;28;19916;-81
2023/01/20 13:57:52;;;;;;;;;;;103.00;2227.20;;;;;;5032812;28;19945;-83
2023/01/20 14:00:18;;;;;;;;;;;103.00;2227.20;;;;;;5033810;28;19905;-80
2023/01/20 14:02:44;;;;;;;;;;;103.10;2227.20;;;;;;5024766;28;19991;-87